Terminal Aerodrome Forecast
Issued by NWS Tuscon, AZ

Home | Current Version | Previous Version | Text Only | Print | Product List | Glossary On
Versions: 1 2 3 4 5 6 7 8 9 10 11 12 13 14 15 16 17 18 19 20 21
000
FTUS45 KTWC 280043 AAA
TAFTUS
TAF AMD
KTUS 280043Z 2801/2824 36006KT P6SM VCTS SCT080CB SCT130 BKN200
      TEMPO 2801/2803 VRB15G30KT 6SM TSRA BKN090CB BKN200
     FM280300 34010KT P6SM SCT080 BKN120
     FM280600 14006KT P6SM SCT140 BKN250
     FM281700 VRB04KT P6SM FEW080 SCT250
     FM282200 33007KT P6SM SCT080 SCT250=

USA.gov is the U.S. government's official web portal to all federal, state and local government web resources and services.